createdAt,value
2017-05-10T00:00:04.668Z,17.73
2017-05-10T00:00:17.815Z,17.73
2017-05-10T00:00:30.536Z,17.76
2017-05-10T00:00:43.144Z,17.83
2017-05-10T00:00:56.269Z,17.77
2017-05-10T00:01:09.485Z,17.76
2017-05-10T00:01:22.137Z,17.73
2017-05-10T00:01:35.364Z,17.81
2017-05-10T00:01:48.552Z,17.74
2017-05-10T00:02:01.740Z,17.77
2017-05-10T00:02:14.915Z,17.73
2017-05-10T00:02:28.069Z,17.8
2017-05-10T00:02:40.719Z,17.81
2017-05-10T00:02:53.895Z,17.81
2017-05-10T00:03:07.131Z,17.71
2017-05-10T00:03:20.233Z,17.81
2017-05-10T00:03:33.418Z,17.81
2017-05-10T00:03:46.141Z,17.77
2017-05-10T00:03:59.251Z,17.81
2017-05-10T00:04:12.405Z,17.81
2017-05-10T00:04:25.586Z,17.71
2017-05-10T00:04:38.803Z,17.86
2017-05-10T00:04:51.527Z,17.74
2017-05-10T00:05:04.684Z,17.71
2017-05-10T00:05:17.433Z,17.73
2017-05-10T00:05:30.578Z,17.83
2017-05-10T00:05:43.730Z,17.71
2017-05-10T00:05:56.934Z,17.79
2017-05-10T00:06:09.598Z,17.76
2017-05-10T00:06:22.731Z,17.76
2017-05-10T00:06:35.470Z,17.76
2017-05-10T00:06:47.646Z,17.73
2017-05-10T00:06:59.938Z,17.68
2017-05-10T00:07:13.332Z,17.69
2017-05-10T00:07:26.017Z,17.71
2017-05-10T00:07:38.653Z,17.74
2017-05-10T00:07:51.814Z,17.69
2017-05-10T00:08:04.995Z,17.76
2017-05-10T00:08:17.689Z,17.76
2017-05-10T00:08:30.472Z,17.71
2017-05-10T00:08:43.758Z,17.76
2017-05-10T00:08:55.948Z,17.77
2017-05-10T00:09:09.108Z,17.73
2017-05-10T00:09:22.279Z,17.76
2017-05-10T00:09:35.446Z,17.76
2017-05-10T00:09:48.148Z,17.76
2017-05-10T00:10:00.770Z,17.77
2017-05-10T00:10:13.887Z,17.66
2017-05-10T00:10:27.070Z,17.74
2017-05-10T00:10:40.209Z,17.79
2017-05-10T00:10:52.920Z,17.73
2017-05-10T00:11:06.099Z,17.71
2017-05-10T00:11:18.754Z,17.76
2017-05-10T00:11:31.461Z,17.76
2017-05-10T00:11:44.129Z,17.77
2017-05-10T00:11:57.316Z,17.77
2017-05-10T00:12:10.490Z,17.69
2017-05-10T00:12:23.624Z,17.74
2017-05-10T00:12:36.801Z,17.68
2017-05-10T00:12:49.919Z,17.74
2017-05-10T00:13:03.145Z,17.65
2017-05-10T00:13:15.771Z,17.66
2017-05-10T00:13:28.992Z,17.74
2017-05-10T00:13:42.082Z,17.65
2017-05-10T00:13:54.205Z,17.73
2017-05-10T00:14:07.410Z,17.65
2017-05-10T00:14:20.101Z,17.77
2017-05-10T00:14:33.211Z,17.69
2017-05-10T00:14:45.891Z,17.68
2017-05-10T00:14:58.985Z,17.63
2017-05-10T00:15:12.127Z,17.69
2017-05-10T00:15:25.252Z,17.63
2017-05-10T00:15:37.396Z,17.8
2017-05-10T00:15:50.552Z,17.66
2017-05-10T00:16:03.696Z,17.66
2017-05-10T00:16:16.846Z,17.65
2017-05-10T00:16:29.532Z,17.74
2017-05-10T00:16:42.645Z,17.65
2017-05-10T00:16:55.266Z,17.76
2017-05-10T00:17:10.475Z,17.68
2017-05-10T00:17:22.921Z,17.69
2017-05-10T00:17:35.318Z,17.68
2017-05-10T00:17:48.425Z,17.73
2017-05-10T00:18:01.591Z,17.68
2017-05-10T00:18:14.765Z,17.68
2017-05-10T00:18:27.888Z,17.65
2017-05-10T00:18:40.544Z,17.69
2017-05-10T00:18:53.180Z,17.69
2017-05-10T00:19:06.360Z,17.66
2017-05-10T00:19:19.026Z,17.65
2017-05-10T00:19:32.165Z,17.66
2017-05-10T00:19:45.399Z,17.63
2017-05-10T00:19:58.068Z,17.65
2017-05-10T00:20:11.197Z,17.63
2017-05-10T00:20:24.375Z,17.58
2017-05-10T00:20:37.532Z,17.58
2017-05-10T00:20:50.695Z,17.65
2017-05-10T00:21:03.864Z,17.6
2017-05-10T00:21:17.039Z,17.6
2017-05-10T00:21:30.257Z,17.58
2017-05-10T00:21:42.894Z,17.6
2017-05-10T00:21:55.808Z,17.66
2017-05-10T00:22:08.416Z,17.58
2017-05-10T00:22:21.335Z,17.6
2017-05-10T00:22:34.503Z,17.57
2017-05-10T00:22:47.161Z,17.54
2017-05-10T00:23:00.340Z,17.55
2017-05-10T00:23:13.028Z,17.5
2017-05-10T00:23:26.198Z,17.54
2017-05-10T00:23:39.347Z,17.55
2017-05-10T00:23:52.463Z,17.52
2017-05-10T00:24:05.618Z,17.6
2017-05-10T00:24:18.794Z,17.54
2017-05-10T00:24:31.919Z,17.49
2017-05-10T00:24:45.775Z,17.52
2017-05-10T00:24:58.970Z,17.5
2017-05-10T00:25:12.117Z,17.5
2017-05-10T00:25:25.328Z,17.43
2017-05-10T00:25:38.493Z,17.38
2017-05-10T00:25:51.647Z,17.42
2017-05-10T00:26:04.796Z,17.46
2017-05-10T00:26:16.979Z,17.42
2017-05-10T00:26:30.152Z,17.4
2017-05-10T00:26:42.347Z,17.42
2017-05-10T00:26:55.610Z,17.45
2017-05-10T00:27:07.773Z,17.35
2017-05-10T00:27:20.982Z,17.4
2017-05-10T00:27:34.117Z,17.35
2017-05-10T00:27:47.374Z,17.31
2017-05-10T00:28:00.509Z,17.3
2017-05-10T00:28:13.720Z,17.39
2017-05-10T00:28:27.584Z,17.31
2017-05-10T00:28:40.199Z,17.42
2017-05-10T00:28:53.327Z,17.36
2017-05-10T00:29:06.482Z,17.35
2017-05-10T00:29:19.128Z,17.39
2017-05-10T00:29:32.266Z,17.3
2017-05-10T00:29:44.892Z,17.42
2017-05-10T00:29:58.154Z,17.31
2017-05-10T00:30:10.884Z,17.27
2017-05-10T00:30:24.023Z,17.28
2017-05-10T00:30:37.139Z,17.21
2017-05-10T00:30:50.340Z,17.24
2017-05-10T00:31:03.554Z,17.21
2017-05-10T00:31:16.208Z,17.25
2017-05-10T00:31:29.346Z,17.18
2017-05-10T00:31:42.021Z,17.2
2017-05-10T00:31:55.202Z,17.25
2017-05-10T00:32:08.415Z,17.22
2017-05-10T00:32:21.672Z,17.17
2017-05-10T00:32:34.834Z,17.21
2017-05-10T00:32:48.048Z,17.17
2017-05-10T00:33:01.247Z,17.17
2017-05-10T00:33:13.866Z,17.17
2017-05-10T00:33:27.029Z,17.03
2017-05-10T00:33:40.223Z,17.18
2017-05-10T00:33:53.391Z,17.13
2017-05-10T00:34:06.076Z,17.17
2017-05-10T00:34:18.719Z,17.22
2017-05-10T00:34:31.869Z,17.2
2017-05-10T00:34:44.489Z,17.24
2017-05-10T00:34:57.167Z,17.13
2017-05-10T00:35:09.827Z,17.12
2017-05-10T00:35:22.526Z,17.25
2017-05-10T00:35:35.642Z,17.18
2017-05-10T00:35:48.338Z,17.17
2017-05-10T00:36:01.503Z,17.12
2017-05-10T00:36:14.656Z,17.22
2017-05-10T00:36:27.849Z,17.22
2017-05-10T00:36:41.038Z,17.21
2017-05-10T00:36:54.236Z,17.25
2017-05-10T00:37:07.359Z,17.22
2017-05-10T00:37:20.780Z,17.22
2017-05-10T00:37:33.925Z,17.2
2017-05-10T00:37:46.579Z,17.24
2017-05-10T00:37:59.808Z,17.24
2017-05-10T00:38:13.064Z,17.22
2017-05-10T00:38:26.191Z,17.2
2017-05-10T00:38:39.325Z,17.24
2017-05-10T00:38:52.460Z,17.24
2017-05-10T00:39:05.607Z,17.24
2017-05-10T00:39:18.807Z,17.27
2017-05-10T00:39:31.971Z,17.2
2017-05-10T00:39:45.175Z,17.2
2017-05-10T00:39:58.351Z,17.27
2017-05-10T00:40:11.494Z,17.24
2017-05-10T00:40:24.142Z,17.22
2017-05-10T00:40:37.340Z,17.27
2017-05-10T00:40:50.572Z,17.24
2017-05-10T00:41:03.673Z,17.27
2017-05-10T00:41:16.342Z,17.28
2017-05-10T00:41:29.479Z,17.24
2017-05-10T00:41:42.647Z,17.21
2017-05-10T00:41:55.851Z,17.24
2017-05-10T00:42:08.529Z,17.28
2017-05-10T00:42:21.732Z,17.24
2017-05-10T00:42:34.923Z,17.24
2017-05-10T00:42:48.047Z,17.27
2017-05-10T00:43:01.194Z,17.22
2017-05-10T00:43:14.341Z,17.24
2017-05-10T00:43:27.018Z,17.22
2017-05-10T00:43:40.170Z,17.21
2017-05-10T00:43:52.811Z,17.15
2017-05-10T00:44:05.481Z,17.24
2017-05-10T00:44:17.602Z,17.27
2017-05-10T00:44:30.771Z,17.2
2017-05-10T00:44:43.449Z,17.28
2017-05-10T00:44:56.614Z,17.21
2017-05-10T00:45:09.705Z,17.27
2017-05-10T00:45:22.873Z,17.2
2017-05-10T00:45:35.543Z,17.21
2017-05-10T00:45:48.675Z,17.24
2017-05-10T00:46:01.854Z,17.21
2017-05-10T00:46:14.512Z,17.2
2017-05-10T00:46:27.653Z,17.27
2017-05-10T00:46:40.805Z,17.28
2017-05-10T00:46:53.983Z,17.3
2017-05-10T00:47:06.655Z,17.2
2017-05-10T00:47:19.809Z,17.25
2017-05-10T00:47:33.027Z,17.25
2017-05-10T00:47:45.731Z,17.3
2017-05-10T00:47:58.948Z,17.27
2017-05-10T00:48:12.148Z,17.28
2017-05-10T00:48:25.385Z,17.36
2017-05-10T00:48:38.532Z,17.36
2017-05-10T00:48:51.670Z,17.28
2017-05-10T00:49:04.294Z,17.38
2017-05-10T00:49:17.450Z,17.39
2017-05-10T00:49:30.582Z,17.35
2017-05-10T00:49:43.767Z,17.38
2017-05-10T00:49:56.876Z,17.39
2017-05-10T00:50:08.981Z,17.42
2017-05-10T00:50:22.174Z,17.31
2017-05-10T00:50:35.318Z,17.4
2017-05-10T00:50:48.006Z,17.42
2017-05-10T00:51:01.196Z,17.45
2017-05-10T00:51:14.343Z,17.31
2017-05-10T00:51:27.520Z,17.3
2017-05-10T00:51:40.685Z,17.42
2017-05-10T00:51:53.825Z,17.42
2017-05-10T00:52:06.989Z,17.35
2017-05-10T00:52:20.195Z,17.42
2017-05-10T00:52:33.523Z,17.39
2017-05-10T00:52:46.213Z,17.43
2017-05-10T00:52:59.378Z,17.4
2017-05-10T00:53:12.557Z,17.42
2017-05-10T00:53:25.686Z,17.39
2017-05-10T00:53:38.820Z,17.43
2017-05-10T00:53:52.008Z,17.45
2017-05-10T00:54:04.668Z,17.43
2017-05-10T00:54:17.818Z,17.39
2017-05-10T00:54:31.019Z,17.46
2017-05-10T00:54:43.132Z,17.43
2017-05-10T00:54:56.291Z,17.4
2017-05-10T00:55:09.486Z,17.46
2017-05-10T00:55:22.684Z,17.36
2017-05-10T00:55:35.885Z,17.38
2017-05-10T00:55:49.036Z,17.36
2017-05-10T00:56:02.219Z,17.4
2017-05-10T00:56:15.401Z,17.4
2017-05-10T00:56:28.583Z,17.42
2017-05-10T00:56:40.219Z,17.46
2017-05-10T00:56:53.406Z,17.4
2017-05-10T00:57:06.105Z,17.45
2017-05-10T00:57:18.756Z,17.42
2017-05-10T00:57:31.928Z,17.42
2017-05-10T00:57:44.608Z,17.43
2017-05-10T00:57:57.792Z,17.4
2017-05-10T00:58:10.483Z,17.4
2017-05-10T00:58:23.660Z,17.42
2017-05-10T00:58:35.312Z,17.45
2017-05-10T00:58:48.528Z,17.4
2017-05-10T00:59:01.690Z,17.42
2017-05-10T00:59:14.363Z,17.4
2017-05-10T00:59:27.570Z,17.43
2017-05-10T00:59:40.781Z,17.45
2017-05-10T00:59:53.923Z,17.43
2017-05-10T01:00:07.085Z,17.49
2017-05-10T01:00:19.776Z,17.42
2017-05-10T01:00:32.438Z,17.4
2017-05-10T01:00:45.070Z,17.46
2017-05-10T01:00:58.243Z,17.38
2017-05-10T01:01:10.930Z,17.43
2017-05-10T01:01:24.098Z,17.46
2017-05-10T01:01:36.734Z,17.43
2017-05-10T01:01:49.877Z,17.43
2017-05-10T01:02:02.973Z,17.42
2017-05-10T01:02:15.665Z,17.42
2017-05-10T01:02:28.871Z,17.4
2017-05-10T01:02:42.076Z,17.32
2017-05-10T01:02:55.228Z,17.32
2017-05-10T01:03:08.378Z,17.32
2017-05-10T01:03:21.494Z,17.35
2017-05-10T01:03:34.677Z,17.35
2017-05-10T01:03:47.879Z,17.28
2017-05-10T01:04:00.999Z,17.39
2017-05-10T01:04:14.216Z,17.31
2017-05-10T01:04:27.379Z,17.39
2017-05-10T01:04:40.540Z,17.31
2017-05-10T01:04:53.684Z,17.35
2017-05-10T01:05:06.819Z,17.42
2017-05-10T01:05:20.033Z,17.39
2017-05-10T01:05:33.207Z,17.38
2017-05-10T01:05:46.405Z,17.35
2017-05-10T01:05:59.515Z,17.4
2017-05-10T01:06:12.631Z,17.38
2017-05-10T01:06:25.762Z,17.42
2017-05-10T01:06:38.953Z,17.42
2017-05-10T01:06:52.158Z,17.35
2017-05-10T01:07:05.363Z,17.31
2017-05-10T01:07:18.537Z,17.36
2017-05-10T01:07:31.259Z,17.35
2017-05-10T01:07:44.720Z,17.38
2017-05-10T01:07:57.891Z,17.38
2017-05-10T01:08:11.047Z,17.39
2017-05-10T01:08:24.277Z,17.42
2017-05-10T01:08:37.532Z,17.35
2017-05-10T01:08:50.783Z,17.32
2017-05-10T01:09:03.462Z,17.43
2017-05-10T01:09:16.163Z,17.36
2017-05-10T01:09:29.308Z,17.43
2017-05-10T01:09:42.491Z,17.38
2017-05-10T01:09:55.179Z,17.35
2017-05-10T01:10:08.291Z,17.42
2017-05-10T01:10:20.907Z,17.4
2017-05-10T01:10:34.077Z,17.36
2017-05-10T01:10:47.263Z,17.39
2017-05-10T01:11:00.404Z,17.47
2017-05-10T01:11:13.574Z,17.39
2017-05-10T01:11:26.193Z,17.36
2017-05-10T01:11:39.325Z,17.38
2017-05-10T01:11:52.480Z,17.38
2017-05-10T01:12:05.638Z,17.4
2017-05-10T01:12:17.733Z,17.39
2017-05-10T01:12:30.372Z,17.4
2017-05-10T01:12:42.978Z,17.42
2017-05-10T01:12:55.636Z,17.35
2017-05-10T01:13:08.831Z,17.42
2017-05-10T01:13:21.979Z,17.42
2017-05-10T01:13:35.147Z,17.42
2017-05-10T01:13:47.831Z,17.42
2017-05-10T01:14:00.965Z,17.31
2017-05-10T01:14:14.126Z,17.38
2017-05-10T01:14:27.317Z,17.31
2017-05-10T01:14:40.469Z,17.39
2017-05-10T01:14:53.131Z,17.39
2017-05-10T01:15:05.770Z,17.39
2017-05-10T01:15:18.971Z,17.39
2017-05-10T01:15:32.123Z,17.35
2017-05-10T01:15:45.272Z,17.38
2017-05-10T01:15:58.477Z,17.39
2017-05-10T01:16:11.635Z,17.38
2017-05-10T01:16:24.777Z,17.32
2017-05-10T01:16:37.428Z,17.35
2017-05-10T01:16:50.063Z,17.35
2017-05-10T01:17:03.269Z,17.32
2017-05-10T01:17:16.468Z,17.4
2017-05-10T01:17:29.683Z,17.38
2017-05-10T01:17:42.327Z,17.32
2017-05-10T01:17:55.475Z,17.32
2017-05-10T01:18:07.587Z,17.3
2017-05-10T01:18:20.763Z,17.3
2017-05-10T01:18:33.893Z,17.38
2017-05-10T01:18:47.024Z,17.31
2017-05-10T01:19:00.176Z,17.36
2017-05-10T01:19:13.324Z,17.27
2017-05-10T01:19:25.981Z,17.32
2017-05-10T01:19:39.172Z,17.22
2017-05-10T01:19:52.333Z,17.3
2017-05-10T01:20:05.502Z,17.38
2017-05-10T01:20:18.208Z,17.42
2017-05-10T01:20:30.865Z,17.39
2017-05-10T01:20:44.071Z,17.39
2017-05-10T01:20:57.245Z,17.49
2017-05-10T01:21:10.399Z,17.31
2017-05-10T01:21:23.590Z,17.45
2017-05-10T01:21:36.699Z,17.4
2017-05-10T01:21:49.859Z,17.42
2017-05-10T01:22:03.025Z,17.43
2017-05-10T01:22:15.183Z,17.46
2017-05-10T01:22:28.290Z,17.43
2017-05-10T01:22:41.556Z,17.54
2017-05-10T01:22:54.734Z,17.57
2017-05-10T01:23:07.865Z,17.46
2017-05-10T01:23:21.059Z,17.54
2017-05-10T01:23:34.171Z,17.54
2017-05-10T01:23:47.337Z,17.52
2017-05-10T01:24:00.474Z,17.55
2017-05-10T01:24:13.628Z,17.52
2017-05-10T01:24:26.790Z,17.5
2017-05-10T01:24:39.911Z,17.54
2017-05-10T01:24:53.051Z,17.58
2017-05-10T01:25:05.740Z,17.55
2017-05-10T01:25:17.915Z,17.57
2017-05-10T01:25:31.047Z,17.54
2017-05-10T01:25:44.198Z,17.55
2017-05-10T01:25:57.362Z,17.5
2017-05-10T01:26:10.517Z,17.5
2017-05-10T01:26:25.036Z,17.54
2017-05-10T01:26:38.254Z,17.5
2017-05-10T01:26:51.411Z,17.54
2017-05-10T01:27:04.526Z,17.52
2017-05-10T01:27:17.156Z,17.55
2017-05-10T01:27:30.307Z,17.57
2017-05-10T01:27:43.472Z,17.52
2017-05-10T01:27:56.619Z,17.43
2017-05-10T01:28:09.764Z,17.5
2017-05-10T01:28:22.426Z,17.43
2017-05-10T01:28:35.611Z,17.45
2017-05-10T01:28:48.742Z,17.43
2017-05-10T01:29:01.913Z,17.42
2017-05-10T01:29:14.595Z,17.46
2017-05-10T01:29:27.788Z,17.42
2017-05-10T01:29:40.955Z,17.43
2017-05-10T01:29:54.130Z,17.38
2017-05-10T01:30:07.308Z,17.4
2017-05-10T01:30:19.954Z,17.46
2017-05-10T01:30:33.099Z,17.42
2017-05-10T01:30:45.285Z,17.35
2017-05-10T01:30:57.936Z,17.42
2017-05-10T01:31:10.564Z,17.42
2017-05-10T01:31:23.712Z,17.42
2017-05-10T01:31:36.361Z,17.31
2017-05-10T01:31:49.489Z,17.38
2017-05-10T01:32:02.134Z,17.3
2017-05-10T01:32:15.266Z,17.36
2017-05-10T01:32:28.387Z,17.42
2017-05-10T01:32:41.583Z,17.45
2017-05-10T01:32:54.219Z,17.36
2017-05-10T01:33:07.413Z,17.38
2017-05-10T01:33:20.572Z,17.28
2017-05-10T01:33:33.725Z,17.27
2017-05-10T01:33:46.407Z,17.27
2017-05-10T01:33:59.603Z,17.31
2017-05-10T01:34:12.776Z,17.31
2017-05-10T01:34:25.952Z,17.27
2017-05-10T01:34:39.123Z,17.36
2017-05-10T01:34:52.268Z,17.32
2017-05-10T01:35:04.970Z,17.31
2017-05-10T01:35:17.616Z,17.35
2017-05-10T01:35:30.846Z,17.28
2017-05-10T01:35:44.042Z,17.27
2017-05-10T01:35:57.184Z,17.38
2017-05-10T01:36:10.332Z,17.27
2017-05-10T01:36:23.516Z,17.36
2017-05-10T01:36:36.212Z,17.36
2017-05-10T01:36:48.374Z,17.39
2017-05-10T01:37:01.551Z,17.28
2017-05-10T01:37:14.196Z,17.36
2017-05-10T01:37:27.360Z,17.28
2017-05-10T01:37:40.037Z,17.3
2017-05-10T01:37:53.370Z,17.36
2017-05-10T01:38:06.750Z,17.38
2017-05-10T01:38:18.925Z,17.39
2017-05-10T01:38:32.088Z,17.32
2017-05-10T01:38:45.182Z,17.38
2017-05-10T01:38:58.366Z,17.32
2017-05-10T01:39:11.511Z,17.42
2017-05-10T01:39:24.712Z,17.4
2017-05-10T01:39:37.886Z,17.36
2017-05-10T01:39:50.999Z,17.38
2017-05-10T01:40:04.183Z,17.36
2017-05-10T01:40:16.798Z,17.42
2017-05-10T01:40:29.396Z,17.4
2017-05-10T01:40:42.620Z,17.38
2017-05-10T01:40:55.776Z,17.42
2017-05-10T01:41:08.942Z,17.39
2017-05-10T01:41:22.059Z,17.38
2017-05-10T01:41:34.674Z,17.42
2017-05-10T01:41:47.862Z,17.39
2017-05-10T01:42:01.030Z,17.39
2017-05-10T01:42:14.282Z,17.39
2017-05-10T01:42:27.430Z,17.39
2017-05-10T01:42:40.641Z,17.4
2017-05-10T01:42:53.807Z,17.31
2017-05-10T01:43:06.941Z,17.36
2017-05-10T01:43:19.614Z,17.36
2017-05-10T01:43:32.842Z,17.35
2017-05-10T01:43:46.015Z,17.35
2017-05-10T01:43:59.218Z,17.32
2017-05-10T01:44:12.412Z,17.32
2017-05-10T01:44:24.569Z,17.36
2017-05-10T01:44:37.753Z,17.25
2017-05-10T01:44:50.859Z,17.28
2017-05-10T01:45:03.959Z,17.28
2017-05-10T01:45:16.605Z,17.28
2017-05-10T01:45:29.726Z,17.35
2017-05-10T01:45:42.886Z,17.32
2017-05-10T01:45:56.042Z,17.27
2017-05-10T01:46:09.243Z,17.25
2017-05-10T01:46:22.442Z,17.25
2017-05-10T01:46:35.626Z,17.27
2017-05-10T01:46:48.844Z,17.21
2017-05-10T01:47:01.959Z,17.27
2017-05-10T01:47:15.113Z,17.24
2017-05-10T01:47:28.243Z,17.2
2017-05-10T01:47:41.407Z,17.25
2017-05-10T01:47:54.607Z,17.27
2017-05-10T01:48:07.239Z,17.25
2017-05-10T01:48:20.393Z,17.25
2017-05-10T01:48:33.483Z,17.18
2017-05-10T01:48:46.692Z,17.22
2017-05-10T01:48:59.365Z,17.24
2017-05-10T01:49:12.485Z,17.22
2017-05-10T01:49:25.673Z,17.27
2017-05-10T01:49:38.867Z,17.27
2017-05-10T01:49:51.989Z,17.27
2017-05-10T01:50:05.103Z,17.24
2017-05-10T01:50:17.732Z,17.27
2017-05-10T01:50:30.932Z,17.25
2017-05-10T01:50:43.534Z,17.25
2017-05-10T01:50:56.214Z,17.22
2017-05-10T01:51:09.385Z,17.21
2017-05-10T01:51:21.575Z,17.28
2017-05-10T01:51:34.709Z,17.2
2017-05-10T01:51:47.926Z,17.22
2017-05-10T01:52:01.100Z,17.25
2017-05-10T01:52:13.707Z,17.18
2017-05-10T01:52:26.874Z,17.2
2017-05-10T01:52:40.074Z,17.18
2017-05-10T01:52:53.459Z,17.18
2017-05-10T01:53:06.623Z,17.2
2017-05-10T01:53:19.778Z,17.18
2017-05-10T01:53:32.955Z,17.13
2017-05-10T01:53:45.593Z,17.15
2017-05-10T01:53:58.777Z,17.22
2017-05-10T01:54:11.933Z,17.22
2017-05-10T01:54:24.522Z,17.17
2017-05-10T01:54:37.724Z,17.18
2017-05-10T01:54:50.364Z,17.17
2017-05-10T01:55:03.033Z,17.18
2017-05-10T01:55:15.697Z,17.17
2017-05-10T01:55:28.356Z,17.28
2017-05-10T01:55:41.544Z,17.24
2017-05-10T01:55:54.168Z,17.18
2017-05-10T01:56:07.308Z,17.2
2017-05-10T01:56:20.434Z,17.2
2017-05-10T01:56:33.076Z,17.2
2017-05-10T01:56:46.272Z,17.22
2017-05-10T01:56:59.410Z,17.2
2017-05-10T01:57:12.505Z,17.2
2017-05-10T01:57:25.633Z,17.21
2017-05-10T01:57:38.791Z,17.18
2017-05-10T01:57:51.981Z,17.21
2017-05-10T01:58:05.143Z,17.15
2017-05-10T01:58:17.252Z,17.15
2017-05-10T01:58:30.366Z,17.18
2017-05-10T01:58:43.533Z,17.18
2017-05-10T01:58:56.722Z,17.13
2017-05-10T01:59:09.907Z,17.21
2017-05-10T01:59:22.062Z,17.1
2017-05-10T01:59:35.251Z,17.03
2017-05-10T01:59:47.889Z,17.03
2017-05-10T02:00:01.030Z,17.15
2017-05-10T02:00:12.600Z,17.18
2017-05-10T02:00:25.205Z,17.12
2017-05-10T02:00:38.371Z,17.12
2017-05-10T02:00:51.571Z,17.07
2017-05-10T02:01:04.679Z,17.13
2017-05-10T02:01:17.301Z,17.12
2017-05-10T02:01:30.423Z,17.06
2017-05-10T02:01:43.073Z,17.07
2017-05-10T02:01:56.251Z,17.07
2017-05-10T02:02:08.893Z,17.02
2017-05-10T02:02:22.043Z,17.05
2017-05-10T02:02:35.229Z,17.06
2017-05-10T02:02:48.375Z,17.09
2017-05-10T02:03:01.029Z,17.05
2017-05-10T02:03:14.232Z,17.07
2017-05-10T02:03:27.349Z,17.05
2017-05-10T02:03:40.484Z,17.12
2017-05-10T02:03:53.152Z,17.06
2017-05-10T02:04:06.357Z,17.06
2017-05-10T02:04:18.496Z,17.05
2017-05-10T02:04:31.680Z,17.05
2017-05-10T02:04:44.901Z,17.09
2017-05-10T02:04:58.055Z,17.09
2017-05-10T02:05:11.274Z,17.02
2017-05-10T02:05:24.379Z,17.05
2017-05-10T02:05:37.530Z,17.05
2017-05-10T02:05:50.213Z,17.12
2017-05-10T02:06:03.386Z,17.09
2017-05-10T02:06:16.609Z,17.07
2017-05-10T02:06:29.843Z,17.07
2017-05-10T02:06:43.022Z,17.17
2017-05-10T02:06:56.260Z,17.07
2017-05-10T02:07:08.954Z,17.06
2017-05-10T02:07:22.175Z,17.1
2017-05-10T02:07:35.370Z,17.13
2017-05-10T02:07:48.476Z,17.13
2017-05-10T02:08:01.842Z,17.12
2017-05-10T02:08:14.943Z,17.1
2017-05-10T02:08:28.110Z,17.2
2017-05-10T02:08:41.290Z,17.03
2017-05-10T02:08:53.952Z,17.15
2017-05-10T02:09:07.156Z,17.18
2017-05-10T02:09:20.340Z,17.2
2017-05-10T02:09:33.535Z,17.1
2017-05-10T02:09:45.674Z,17.21
2017-05-10T02:09:58.791Z,17.2
2017-05-10T02:10:11.903Z,17.18
2017-05-10T02:10:24.577Z,17.22
2017-05-10T02:10:37.730Z,17.18
2017-05-10T02:10:50.355Z,17.22
2017-05-10T02:11:03.545Z,17.18
2017-05-10T02:11:16.204Z,17.2
2017-05-10T02:11:29.309Z,17.18
2017-05-10T02:11:41.924Z,17.3
2017-05-10T02:11:54.573Z,17.25
2017-05-10T02:12:07.758Z,17.25
2017-05-10T02:12:20.849Z,17.36
2017-05-10T02:12:34.002Z,17.3
2017-05-10T02:12:46.636Z,17.36
2017-05-10T02:12:59.801Z,17.25
2017-05-10T02:13:13.028Z,17.42
2017-05-10T02:13:25.625Z,17.35
2017-05-10T02:13:38.791Z,17.42
2017-05-10T02:13:51.487Z,17.35
2017-05-10T02:14:04.646Z,17.31
2017-05-10T02:14:17.555Z,17.31
2017-05-10T02:14:30.775Z,17.42
2017-05-10T02:14:43.926Z,17.42
2017-05-10T02:14:57.035Z,17.43
2017-05-10T02:15:09.148Z,17.39
2017-05-10T02:15:21.795Z,17.43
2017-05-10T02:15:34.992Z,17.43
2017-05-10T02:15:48.199Z,17.39
2017-05-10T02:16:01.382Z,17.43
2017-05-10T02:16:13.980Z,17.43
2017-05-10T02:16:27.121Z,17.46
2017-05-10T02:16:40.301Z,17.43
2017-05-10T02:16:52.487Z,17.45
2017-05-10T02:17:05.565Z,17.5
2017-05-10T02:17:18.189Z,17.45
2017-05-10T02:17:31.323Z,17.58
2017-05-10T02:17:44.456Z,17.47
2017-05-10T02:17:57.119Z,17.47
2017-05-10T02:18:10.287Z,17.49
2017-05-10T02:18:22.988Z,17.5
2017-05-10T02:18:36.196Z,17.54
2017-05-10T02:18:48.908Z,17.52
2017-05-10T02:19:01.583Z,17.54
2017-05-10T02:19:14.741Z,17.46
2017-05-10T02:19:27.878Z,17.55
2017-05-10T02:19:41.069Z,17.6
2017-05-10T02:19:54.216Z,17.47
2017-05-10T02:20:07.339Z,17.52
2017-05-10T02:20:20.038Z,17.46
2017-05-10T02:20:33.226Z,17.46
2017-05-10T02:20:46.392Z,17.46
2017-05-10T02:20:59.608Z,17.43
2017-05-10T02:21:12.796Z,17.43
2017-05-10T02:21:25.926Z,17.43
2017-05-10T02:21:39.148Z,17.43
2017-05-10T02:21:51.267Z,17.39
2017-05-10T02:22:04.400Z,17.47
2017-05-10T02:22:17.560Z,17.47
2017-05-10T02:22:30.701Z,17.5
2017-05-10T02:22:43.888Z,17.55
2017-05-10T02:22:57.066Z,17.43
2017-05-10T02:23:10.465Z,17.52
2017-05-10T02:23:23.579Z,17.45
2017-05-10T02:23:36.700Z,17.54
2017-05-10T02:23:49.886Z,17.42
2017-05-10T02:24:02.559Z,17.42
2017-05-10T02:24:15.829Z,17.4
2017-05-10T02:24:29.012Z,17.45
2017-05-10T02:24:42.143Z,17.4
2017-05-10T02:24:55.355Z,17.39
2017-05-10T02:25:08.480Z,17.42
2017-05-10T02:25:21.585Z,17.4
2017-05-10T02:25:34.776Z,17.32
2017-05-10T02:25:47.944Z,17.42
2017-05-10T02:26:01.136Z,17.42
2017-05-10T02:26:14.332Z,17.38
2017-05-10T02:26:27.533Z,17.39
2017-05-10T02:26:40.642Z,17.39
2017-05-10T02:26:53.818Z,17.36
2017-05-10T02:27:06.988Z,17.31
2017-05-10T02:27:20.166Z,17.38
2017-05-10T02:27:33.323Z,17.42
2017-05-10T02:27:45.939Z,17.38
2017-05-10T02:27:59.087Z,17.36
2017-05-10T02:28:12.237Z,17.25
2017-05-10T02:28:25.399Z,17.25
2017-05-10T02:28:38.548Z,17.25
2017-05-10T02:28:51.721Z,17.35
2017-05-10T02:29:04.873Z,17.28
2017-05-10T02:29:18.044Z,17.22
2017-05-10T02:29:31.168Z,17.25
2017-05-10T02:29:44.530Z,17.25
2017-05-10T02:29:57.649Z,17.24
2017-05-10T02:30:10.760Z,17.24
2017-05-10T02:30:23.398Z,17.24
2017-05-10T02:30:36.561Z,17.22
2017-05-10T02:30:49.213Z,17.22
2017-05-10T02:31:02.448Z,17.25
2017-05-10T02:31:15.644Z,17.22
2017-05-10T02:31:28.818Z,17.27
2017-05-10T02:31:42.001Z,17.15
2017-05-10T02:31:55.153Z,17.2
2017-05-10T02:32:07.773Z,17.18
2017-05-10T02:32:20.948Z,17.17
2017-05-10T02:32:33.558Z,17.21
2017-05-10T02:32:46.168Z,17.17
2017-05-10T02:32:58.810Z,17.18
2017-05-10T02:33:11.986Z,17.15
2017-05-10T02:33:25.135Z,17.17
2017-05-10T02:33:38.357Z,17.18
2017-05-10T02:33:51.508Z,17.13
2017-05-10T02:34:04.680Z,17.1
2017-05-10T02:34:17.910Z,17.15
2017-05-10T02:34:30.547Z,17.07
2017-05-10T02:34:43.212Z,17.06
2017-05-10T02:34:55.837Z,17.13
2017-05-10T02:35:09.032Z,17.05
2017-05-10T02:35:21.630Z,17.06
2017-05-10T02:35:34.875Z,17.03
2017-05-10T02:35:48.030Z,17.07
2017-05-10T02:36:01.185Z,17.07
2017-05-10T02:36:14.361Z,17.07
2017-05-10T02:36:27.489Z,17.06
2017-05-10T02:36:40.636Z,17
2017-05-10T02:36:53.856Z,17.12
2017-05-10T02:37:07.096Z,17.1
2017-05-10T02:37:20.282Z,17.05
2017-05-10T02:37:33.525Z,17.1
2017-05-10T02:37:46.769Z,17.1
2017-05-10T02:37:59.915Z,17.1
2017-05-10T02:38:12.769Z,17.13
2017-05-10T02:38:25.943Z,17.1
2017-05-10T02:38:39.080Z,17.03
2017-05-10T02:38:52.252Z,17.06
2017-05-10T02:39:05.406Z,17.12
2017-05-10T02:39:18.567Z,17.07
2017-05-10T02:39:31.715Z,17.07
2017-05-10T02:39:44.857Z,17.06
2017-05-10T02:39:58.023Z,17.05
2017-05-10T02:40:11.157Z,17.03
2017-05-10T02:40:23.842Z,17.12
2017-05-10T02:40:36.963Z,17.13
2017-05-10T02:40:49.611Z,17.05
2017-05-10T02:41:02.738Z,17.17
2017-05-10T02:41:15.869Z,17.07
2017-05-10T02:41:29.063Z,17.09
2017-05-10T02:41:42.264Z,17.05
2017-05-10T02:41:55.476Z,17.12
2017-05-10T02:42:08.158Z,17.07
2017-05-10T02:42:20.839Z,17.07
2017-05-10T02:42:34.055Z,17.09
2017-05-10T02:42:47.228Z,17.06
2017-05-10T02:43:00.414Z,17
2017-05-10T02:43:13.068Z,17.06
2017-05-10T02:43:26.281Z,17.1
2017-05-10T02:43:39.475Z,17.02
2017-05-10T02:43:52.635Z,17.13
2017-05-10T02:44:05.831Z,17.05
2017-05-10T02:44:18.471Z,17.07
2017-05-10T02:44:31.618Z,17.12
2017-05-10T02:44:44.269Z,17.12
2017-05-10T02:44:57.414Z,17.09
2017-05-10T02:45:10.086Z,17.12
2017-05-10T02:45:23.190Z,17.07
2017-05-10T02:45:35.836Z,17.06
2017-05-10T02:45:48.457Z,17.17
2017-05-10T02:46:01.597Z,17.12
2017-05-10T02:46:14.250Z,16.99
2017-05-10T02:46:27.403Z,17.09
2017-05-10T02:46:40.581Z,17.05
2017-05-10T02:46:53.276Z,17.12
2017-05-10T02:47:06.453Z,17.17
2017-05-10T02:47:19.639Z,17.1
2017-05-10T02:47:32.268Z,17.09
2017-05-10T02:47:45.461Z,17.06
2017-05-10T02:47:58.660Z,17.07
2017-05-10T02:48:11.295Z,17.02